createdAt,value
2019-02-07T00:00:47.712Z,29.03
2019-02-07T00:03:16.135Z,27.37
2019-02-07T00:05:44.506Z,29.50
2019-02-07T00:08:12.850Z,29.60
2019-02-07T00:10:41.698Z,28.40
2019-02-07T00:13:09.991Z,29.77
2019-02-07T00:15:38.276Z,29.17
2019-02-07T00:18:06.927Z,27.27
2019-02-07T00:20:35.495Z,28.07
2019-02-07T00:23:04.093Z,27.70
2019-02-07T00:25:32.903Z,27.20
2019-02-07T00:28:01.175Z,28.63
2019-02-07T00:30:29.604Z,26.97
2019-02-07T00:32:58.195Z,24.90
2019-02-07T00:35:26.541Z,25.43
2019-02-07T00:37:55.050Z,26.77
2019-02-07T00:40:23.406Z,25.40
2019-02-07T00:42:51.742Z,25.90
2019-02-07T00:45:20.187Z,25.17
2019-02-07T00:47:49.115Z,25.87
2019-02-07T00:50:18.410Z,26.53
2019-02-07T00:52:47.060Z,25.60
2019-02-07T00:55:19.466Z,24.80
2019-02-07T00:57:47.970Z,25.57
2019-02-07T01:00:22.213Z,26.37
2019-02-07T01:02:51.485Z,25.73
2019-02-07T01:05:24.402Z,24.63
2019-02-07T01:07:53.076Z,24.30
2019-02-07T01:10:26.615Z,23.47
2019-02-07T01:12:55.219Z,24.30
2019-02-07T01:15:24.702Z,23.67
2019-02-07T01:17:53.030Z,22.97
2019-02-07T01:20:21.314Z,23.33
2019-02-07T01:22:49.616Z,22.63
2019-02-07T01:25:22.369Z,22.73
2019-02-07T01:27:50.942Z,21.40
2019-02-07T01:30:21.174Z,22.67
2019-02-07T01:32:49.497Z,22.63
2019-02-07T01:35:18.089Z,22.20
2019-02-07T01:37:46.424Z,23.20
2019-02-07T01:40:18.999Z,22.20
2019-02-07T01:42:47.519Z,23.00
2019-02-07T01:45:25.056Z,21.97
2019-02-07T01:47:53.381Z,21.83
2019-02-07T01:50:23.334Z,22.83
2019-02-07T01:52:52.189Z,22.97
2019-02-07T01:55:20.574Z,22.30
2019-02-07T01:57:48.903Z,22.33
2019-02-07T02:00:18.553Z,22.23
2019-02-07T02:02:46.962Z,22.03
2019-02-07T02:05:19.206Z,20.33
2019-02-07T02:07:47.954Z,21.07
2019-02-07T02:10:22.822Z,21.03
2019-02-07T02:12:51.339Z,22.07
2019-02-07T02:15:24.409Z,20.90
2019-02-07T02:17:50.813Z,19.80
2019-02-07T02:20:21.001Z,20.43
2019-02-07T02:22:49.604Z,21.00
2019-02-07T02:25:18.176Z,20.57
2019-02-07T02:27:46.520Z,20.60
2019-02-07T02:30:17.814Z,20.13
2019-02-07T02:32:46.136Z,20.17
2019-02-07T02:35:14.418Z,20.57
2019-02-07T02:37:42.942Z,20.57
2019-02-07T02:40:12.207Z,20.13
2019-02-07T02:42:40.491Z,20.60
2019-02-07T02:45:12.082Z,21.40
2019-02-07T02:47:40.353Z,20.73
2019-02-07T02:50:11.749Z,20.73
2019-02-07T02:52:40.462Z,21.13
2019-02-07T02:55:10.691Z,21.70
2019-02-07T02:57:38.975Z,20.50
2019-02-07T03:00:13.381Z,20.03
2019-02-07T03:02:49.258Z,20.70
2019-02-07T03:05:34.247Z,21.33
2019-02-07T03:08:06.866Z,19.70
2019-02-07T03:10:48.630Z,20.10
2019-02-07T03:13:21.558Z,20.27
2019-02-07T03:16:03.694Z,20.87
2019-02-07T03:18:33.699Z,20.20
2019-02-07T03:21:21.675Z,20.70
2019-02-07T03:23:54.406Z,21.20
2019-02-07T03:26:33.292Z,21.60
2019-02-07T03:29:06.414Z,19.83
2019-02-07T03:31:39.778Z,20.30
2019-02-07T03:34:09.739Z,20.27
2019-02-07T03:36:48.823Z,20.50
2019-02-07T03:39:21.153Z,19.40
2019-02-07T03:42:00.064Z,20.20
2019-02-07T03:44:39.205Z,21.53
2019-02-07T03:47:11.971Z,20.03
2019-02-07T03:49:41.898Z,19.30
2019-02-07T03:52:11.785Z,19.83
2019-02-07T03:54:56.896Z,20.50
2019-02-07T03:57:35.741Z,20.50
2019-02-07T04:00:08.562Z,19.70
2019-02-07T04:02:40.660Z,20.27
2019-02-07T04:05:19.583Z,20.47
2019-02-07T04:08:04.399Z,20.77
2019-02-07T04:10:49.152Z,20.07
2019-02-07T04:13:28.059Z,19.27
2019-02-07T04:16:00.534Z,20.50
2019-02-07T04:18:48.670Z,20.27
2019-02-07T04:21:24.689Z,20.43
2019-02-07T04:24:00.645Z,21.70
2019-02-07T04:26:42.684Z,20.70
2019-02-07T04:29:25.001Z,21.20
2019-02-07T04:32:04.012Z,20.93
2019-02-07T04:34:50.392Z,20.67
2019-02-07T04:37:20.638Z,21.57
2019-02-07T04:40:05.425Z,19.97
2019-02-07T04:42:53.192Z,20.53
2019-02-07T04:45:23.386Z,21.93
2019-02-07T04:47:56.235Z,21.43
2019-02-07T04:50:26.158Z,21.80
2019-02-07T04:53:14.305Z,21.37
2019-02-07T04:55:47.007Z,20.80
2019-02-07T04:58:26.031Z,21.03
2019-02-07T05:00:58.857Z,20.20
2019-02-07T05:03:41.275Z,21.93
2019-02-07T05:06:11.510Z,20.67
2019-02-07T05:08:47.773Z,20.77
2019-02-07T05:11:34.071Z,21.93
2019-02-07T05:14:16.192Z,21.23
2019-02-07T05:16:57.887Z,21.97
2019-02-07T05:19:30.843Z,20.90
2019-02-07T05:22:17.383Z,21.47
2019-02-07T05:24:47.574Z,21.10
2019-02-07T05:27:35.052Z,21.67
2019-02-07T05:30:06.862Z,20.90
2019-02-07T05:32:56.299Z,21.30
2019-02-07T05:35:29.049Z,21.93
2019-02-07T05:38:15.337Z,21.53
2019-02-07T05:41:00.093Z,21.13
2019-02-07T05:43:30.301Z,21.37
2019-02-07T05:46:00.663Z,21.57
2019-02-07T05:48:48.868Z,21.33
2019-02-07T05:51:35.233Z,22.03
2019-02-07T05:54:05.409Z,21.53
2019-02-07T05:56:38.315Z,21.70
2019-02-07T05:59:24.797Z,21.90
2019-02-07T06:02:03.501Z,23.23
2019-02-07T06:04:39.296Z,20.73
2019-02-07T06:07:18.469Z,22.43
2019-02-07T06:09:51.404Z,22.43
2019-02-07T06:12:24.429Z,21.53
2019-02-07T06:15:10.668Z,21.40
2019-02-07T06:17:40.661Z,21.93
2019-02-07T06:20:20.060Z,21.87
2019-02-07T06:22:50.129Z,22.03
2019-02-07T06:25:32.299Z,22.67
2019-02-07T06:28:08.329Z,21.40
2019-02-07T06:30:47.615Z,20.93
2019-02-07T06:33:29.638Z,28.23
2019-02-07T06:36:02.394Z,22.63
2019-02-07T06:38:47.686Z,22.13
2019-02-07T06:41:29.994Z,22.30
2019-02-07T06:43:59.971Z,22.20
2019-02-07T06:46:48.132Z,22.70
2019-02-07T06:49:35.044Z,21.73
2019-02-07T06:52:05.050Z,22.50
2019-02-07T06:54:37.623Z,21.53
2019-02-07T06:57:24.349Z,21.13
2019-02-07T07:00:10.651Z,21.63
2019-02-07T07:02:49.942Z,21.77
2019-02-07T07:05:29.100Z,22.07
2019-02-07T07:08:02.404Z,21.93
2019-02-07T07:10:41.639Z,21.80
2019-02-07T07:13:18.004Z,22.40
2019-02-07T07:15:50.943Z,22.80
2019-02-07T07:18:20.881Z,22.07
2019-02-07T07:20:59.798Z,22.53
2019-02-07T07:23:36.138Z,21.27
2019-02-07T07:26:22.328Z,21.77
2019-02-07T07:28:52.490Z,23.57
2019-02-07T07:31:28.778Z,21.67
2019-02-07T07:34:01.841Z,21.47
2019-02-07T07:36:34.577Z,22.63
2019-02-07T07:39:16.948Z,22.70
2019-02-07T07:42:03.801Z,22.37
2019-02-07T07:44:33.782Z,22.87
2019-02-07T07:47:12.775Z,22.80
2019-02-07T07:49:42.710Z,22.43
2019-02-07T07:52:12.653Z,22.07
2019-02-07T07:54:59.454Z,22.60
2019-02-07T07:57:36.362Z,23.20
2019-02-07T08:00:26.210Z,23.80
2019-02-07T08:02:56.140Z,23.93
2019-02-07T08:05:26.061Z,21.93
2019-02-07T08:07:58.939Z,22.70
2019-02-07T08:10:35.870Z,23.87
2019-02-07T08:13:06.141Z,24.33
2019-02-07T08:15:36.316Z,24.03
2019-02-07T08:18:09.758Z,23.40
2019-02-07T08:20:55.991Z,23.87
2019-02-07T08:23:41.170Z,23.30
2019-02-07T08:26:11.332Z,22.93
2019-02-07T08:28:41.647Z,23.70
2019-02-07T08:31:11.888Z,22.70
2019-02-07T08:33:48.253Z,23.37
2019-02-07T08:36:33.308Z,23.47
2019-02-07T08:39:12.443Z,24.43
2019-02-07T08:41:48.655Z,24.00
2019-02-07T08:44:27.489Z,24.67
2019-02-07T08:47:02.944Z,22.87
2019-02-07T08:49:42.126Z,24.07
2019-02-07T08:52:32.339Z,24.13
2019-02-07T08:55:05.200Z,23.90
2019-02-07T08:57:35.474Z,23.33
2019-02-07T09:00:22.848Z,23.97
2019-02-07T09:02:55.455Z,24.10
2019-02-07T09:05:28.134Z,24.67
2019-02-07T09:08:04.080Z,24.03
2019-02-07T09:10:34.442Z,24.87
2019-02-07T09:13:20.773Z,24.40
2019-02-07T09:15:51.369Z,24.97
2019-02-07T09:18:30.755Z,24.47
2019-02-07T09:21:17.465Z,24.03
2019-02-07T09:23:59.813Z,23.90
2019-02-07T09:26:41.882Z,23.87
2019-02-07T09:29:12.191Z,24.40
2019-02-07T09:31:51.151Z,25.87
2019-02-07T09:34:21.121Z,24.50
2019-02-07T09:36:57.206Z,24.63
2019-02-07T09:39:36.235Z,24.93
2019-02-07T09:42:19.292Z,24.70
2019-02-07T09:44:49.230Z,24.63
2019-02-07T09:47:22.708Z,25.90
2019-02-07T09:50:09.181Z,23.53
2019-02-07T09:52:45.125Z,24.57
2019-02-07T09:55:15.082Z,25.27
2019-02-07T09:57:50.857Z,25.50
2019-02-07T10:00:26.999Z,25.97
2019-02-07T10:03:06.156Z,25.27
2019-02-07T10:05:39.046Z,24.97
2019-02-07T10:08:24.705Z,26.20
2019-02-07T10:10:55.031Z,26.40
2019-02-07T10:13:43.207Z,23.90
2019-02-07T10:16:29.734Z,24.77
2019-02-07T10:19:00.122Z,24.67
2019-02-07T10:21:30.113Z,24.97
2019-02-07T10:24:03.022Z,25.13
2019-02-07T10:26:49.224Z,24.33
2019-02-07T10:29:35.749Z,24.27
2019-02-07T10:32:11.987Z,25.10
2019-02-07T10:34:42.173Z,24.80
2019-02-07T10:37:24.675Z,26.00
2019-02-07T10:40:03.603Z,25.53
2019-02-07T10:42:33.787Z,25.40
2019-02-07T10:45:12.739Z,24.93
2019-02-07T10:47:43.193Z,24.87
2019-02-07T10:50:14.220Z,24.27
2019-02-07T10:52:44.202Z,24.40
2019-02-07T10:55:14.281Z,24.97
2019-02-07T10:57:50.112Z,27.00
2019-02-07T11:00:21.920Z,25.50
2019-02-07T11:03:03.405Z,25.43
2019-02-07T11:08:26.992Z,24.97
2019-02-07T11:11:02.676Z,25.90
2019-02-07T11:13:50.248Z,24.63
2019-02-07T11:16:22.973Z,25.60
2019-02-07T11:19:02.261Z,25.20
2019-02-07T11:21:48.504Z,25.67
2019-02-07T11:24:18.856Z,25.70
2019-02-07T11:26:49.206Z,26.00
2019-02-07T11:29:37.122Z,24.90
2019-02-07T11:32:20.132Z,26.13
2019-02-07T11:35:06.824Z,26.13
2019-02-07T11:37:39.885Z,26.80
2019-02-07T11:40:29.510Z,26.13
2019-02-07T11:43:11.611Z,24.63
2019-02-07T11:45:48.769Z,25.70
2019-02-07T11:48:35.105Z,26.03
2019-02-07T11:51:08.081Z,25.93
2019-02-07T11:53:50.037Z,26.63
2019-02-07T11:56:36.789Z,25.60
2019-02-07T11:59:06.836Z,25.40
2019-02-07T12:01:46.250Z,25.80
2019-02-07T12:04:25.357Z,26.77
2019-02-07T12:07:11.632Z,26.07
2019-02-07T12:09:44.579Z,25.43
2019-02-07T12:12:26.870Z,25.03
2019-02-07T12:15:02.805Z,25.23
2019-02-07T12:17:49.733Z,26.03
2019-02-07T12:20:29.275Z,24.87
2019-02-07T12:23:08.370Z,24.90
2019-02-07T12:25:53.322Z,25.70
2019-02-07T12:28:23.252Z,26.37
2019-02-07T12:30:53.820Z,25.90
2019-02-07T12:33:33.753Z,25.77
2019-02-07T12:36:07.154Z,26.23
2019-02-07T12:38:37.183Z,24.87
2019-02-07T12:41:24.506Z,24.47
2019-02-07T12:43:54.531Z,25.90
2019-02-07T12:46:24.477Z,25.67
2019-02-07T12:49:10.706Z,26.20
2019-02-07T12:51:53.047Z,25.50
2019-02-07T12:54:39.259Z,25.67
2019-02-07T12:57:09.565Z,25.50
2019-02-07T12:59:55.764Z,27.47
2019-02-07T13:02:41.019Z,26.30
2019-02-07T13:05:14.278Z,26.83
2019-02-07T13:07:47.473Z,25.70
2019-02-07T13:10:26.386Z,25.27
2019-02-07T13:12:56.686Z,25.37
2019-02-07T13:15:38.675Z,27.23
2019-02-07T13:18:14.952Z,26.00
2019-02-07T13:21:01.176Z,26.23
2019-02-07T13:23:40.037Z,27.20
2019-02-07T13:26:16.316Z,27.23
2019-02-07T13:29:01.699Z,27.30
2019-02-07T13:31:40.873Z,27.60
2019-02-07T13:34:22.971Z,27.37
2019-02-07T13:37:05.339Z,27.73
2019-02-07T13:39:41.311Z,26.20
2019-02-07T13:42:11.241Z,29.50
2019-02-07T13:44:44.178Z,29.30
2019-02-07T13:47:14.146Z,28.53
2019-02-07T13:50:00.705Z,29.27
2019-02-07T13:52:46.134Z,30.07
2019-02-07T13:55:34.342Z,28.80
2019-02-07T13:58:17.926Z,27.80
2019-02-07T14:00:50.430Z,29.23
2019-02-07T14:03:35.269Z,28.73
2019-02-07T14:06:05.868Z,27.97
2019-02-07T14:08:41.675Z,30.43
2019-02-07T14:11:27.875Z,28.40
2019-02-07T14:14:00.547Z,28.03
2019-02-07T14:16:39.221Z,27.73
2019-02-07T14:19:25.650Z,27.90
2019-02-07T14:21:58.704Z,28.53
2019-02-07T14:24:29.123Z,28.90
2019-02-07T14:27:08.341Z,27.33
2019-02-07T14:29:38.399Z,28.50
2019-02-07T14:32:11.744Z,29.07
2019-02-07T14:34:54.354Z,29.67
2019-02-07T14:37:40.845Z,32.57
2019-02-07T14:40:21.377Z,29.83
2019-02-07T14:42:51.249Z,30.77
2019-02-07T14:45:33.738Z,28.27
2019-02-07T14:48:02.120Z,29.67
2019-02-07T14:50:30.431Z,28.87
2019-02-07T14:52:58.688Z,30.43
2019-02-07T14:55:27.357Z,30.93
2019-02-07T14:57:55.872Z,29.00
2019-02-07T15:00:25.529Z,29.33
2019-02-07T15:02:53.862Z,29.53
2019-02-07T15:05:22.387Z,30.07
2019-02-07T15:07:50.806Z,29.03
2019-02-07T15:10:20.350Z,28.13
2019-02-07T15:12:49.391Z,29.40
2019-02-07T15:15:22.379Z,29.23
2019-02-07T15:17:50.639Z,28.60
2019-02-07T15:20:25.725Z,30.97
2019-02-07T15:22:49.108Z,28.60
2019-02-07T15:25:17.805Z,28.60
2019-02-07T15:27:46.139Z,28.23
2019-02-07T15:30:19.926Z,29.10
2019-02-07T15:32:48.455Z,26.83
2019-02-07T15:35:28.781Z,29.57
2019-02-07T15:37:57.738Z,28.70
2019-02-07T15:40:26.490Z,29.10
2019-02-07T15:42:54.993Z,28.23
2019-02-07T15:45:23.314Z,28.60
2019-02-07T15:47:51.669Z,28.53
2019-02-07T15:50:25.312Z,29.87
2019-02-07T15:52:56.910Z,28.43
2019-02-07T15:55:25.644Z,29.60
2019-02-07T15:57:53.973Z,30.03
2019-02-07T16:00:35.170Z,30.43
2019-02-07T16:03:05.076Z,30.43
2019-02-07T16:05:33.763Z,29.97
2019-02-07T16:08:02.438Z,30.67
2019-02-07T16:10:30.747Z,30.37
2019-02-07T16:12:59.026Z,28.33
2019-02-07T16:15:27.419Z,30.77
2019-02-07T16:17:55.678Z,29.40
2019-02-07T16:20:24.514Z,30.10
2019-02-07T16:22:53.648Z,30.77
2019-02-07T16:25:22.265Z,29.03
2019-02-07T16:27:50.554Z,29.37
2019-02-07T16:30:25.058Z,30.27
2019-02-07T16:32:53.385Z,31.20
2019-02-07T16:35:22.634Z,30.23
2019-02-07T16:37:51.291Z,29.80
2019-02-07T16:40:22.084Z,31.03
2019-02-07T16:42:50.450Z,29.87
2019-02-07T16:45:23.447Z,30.07
2019-02-07T16:47:51.981Z,29.90
2019-02-07T16:50:24.037Z,29.20
2019-02-07T16:52:52.602Z,29.57
2019-02-07T16:55:21.930Z,28.87
2019-02-07T16:57:50.341Z,30.17
2019-02-07T17:00:27.698Z,31.03
2019-02-07T17:02:56.776Z,30.20
2019-02-07T17:05:25.998Z,28.43
2019-02-07T17:07:54.310Z,30.90
2019-02-07T17:10:26.019Z,30.77
2019-02-07T17:12:54.305Z,31.00
2019-02-07T17:15:23.063Z,31.03
2019-02-07T17:17:51.701Z,30.67
2019-02-07T17:20:25.284Z,31.07
2019-02-07T17:22:53.533Z,31.63
2019-02-07T17:25:21.957Z,30.63
2019-02-07T17:27:50.910Z,30.40
2019-02-07T17:30:22.134Z,30.37
2019-02-07T17:32:51.671Z,31.17
2019-02-07T17:35:21.032Z,31.27
2019-02-07T17:37:49.847Z,29.83
2019-02-07T17:40:20.466Z,40.03
2019-02-07T17:42:49.049Z,37.57
2019-02-07T17:45:25.790Z,33.43
2019-02-07T17:47:54.151Z,33.07
2019-02-07T17:50:25.730Z,33.67
2019-02-07T17:52:54.552Z,32.97
2019-02-07T17:55:24.772Z,34.37
2019-02-07T17:57:53.064Z,31.60
2019-02-07T18:00:47.277Z,31.47
2019-02-07T18:03:15.568Z,31.43
2019-02-07T18:05:44.127Z,30.40
2019-02-07T18:08:12.768Z,28.67
2019-02-07T18:10:41.077Z,28.03
2019-02-07T18:13:09.750Z,27.17
2019-02-07T18:15:38.036Z,26.37
2019-02-07T18:18:06.343Z,27.93
2019-02-07T18:20:34.619Z,24.27
2019-02-07T18:23:03.202Z,23.77
2019-02-07T18:25:31.719Z,21.67
2019-02-07T18:28:00.300Z,21.63
2019-02-07T18:30:28.582Z,21.73
2019-02-07T18:32:57.262Z,20.07
2019-02-07T18:35:25.615Z,17.83
2019-02-07T18:37:53.944Z,15.47
2019-02-07T18:40:27.857Z,14.90
2019-02-07T18:42:56.254Z,14.60
2019-02-07T18:45:24.905Z,15.93
2019-02-07T18:47:53.925Z,15.57
2019-02-07T18:50:24.689Z,15.87
2019-02-07T18:52:52.998Z,15.70
2019-02-07T18:55:22.285Z,15.47
2019-02-07T18:57:50.665Z,13.97
2019-02-07T19:00:22.464Z,14.87
2019-02-07T19:02:50.844Z,17.33
2019-02-07T19:05:20.757Z,21.37
2019-02-07T19:07:49.425Z,20.70
2019-02-07T19:10:20.479Z,21.93
2019-02-07T19:12:48.797Z,23.53
2019-02-07T19:15:27.037Z,21.93
2019-02-07T19:17:55.354Z,21.93
2019-02-07T19:20:23.702Z,22.57
2019-02-07T19:22:52.402Z,23.80
2019-02-07T19:25:20.721Z,23.77
2019-02-07T19:27:49.047Z,21.73
2019-02-07T19:30:26.943Z,22.20
2019-02-07T19:32:55.875Z,19.07
2019-02-07T19:35:24.325Z,21.13
2019-02-07T19:37:52.708Z,19.83
2019-02-07T19:40:21.703Z,21.00
2019-02-07T19:42:50.376Z,20.57
2019-02-07T19:45:20.918Z,20.93
2019-02-07T19:47:49.270Z,20.63
2019-02-07T19:50:19.568Z,18.77
2019-02-07T19:52:48.262Z,17.97
2019-02-07T19:55:19.420Z,18.27
2019-02-07T19:57:47.765Z,17.83
2019-02-07T20:00:27.151Z,18.07
2019-02-07T20:02:55.841Z,17.67
2019-02-07T20:05:24.221Z,16.70
2019-02-07T20:07:52.574Z,15.83
2019-02-07T20:10:23.236Z,15.50
2019-02-07T20:12:52.151Z,16.43
2019-02-07T20:15:35.540Z,15.47
2019-02-07T20:18:05.026Z,17.70
2019-02-07T20:20:33.333Z,19.17
2019-02-07T20:23:01.799Z,22.13
2019-02-07T20:25:30.369Z,23.93
2019-02-07T20:27:59.412Z,24.33
2019-02-07T20:30:36.914Z,25.13
2019-02-07T20:33:06.065Z,25.73
2019-02-07T20:35:34.400Z,24.30
2019-02-07T20:38:03.118Z,24.60
2019-02-07T20:40:31.465Z,23.93
2019-02-07T20:43:00.228Z,22.67
2019-02-07T20:45:28.562Z,24.00
2019-02-07T20:47:57.000Z,20.83
2019-02-07T20:50:27.714Z,23.27
2019-02-07T20:52:56.112Z,22.13
2019-02-07T20:55:24.882Z,22.43
2019-02-07T20:57:53.924Z,22.73
2019-02-07T21:00:28.821Z,22.63
2019-02-07T21:02:57.357Z,22.60
2019-02-07T21:05:26.201Z,22.53
2019-02-07T21:07:54.863Z,21.57
2019-02-07T21:10:25.633Z,22.00
2019-02-07T21:12:54.353Z,22.30
2019-02-07T21:15:23.171Z,22.43
2019-02-07T21:17:51.571Z,29.85
2019-02-07T21:20:23.444Z,25.60
2019-02-07T21:22:52.601Z,24.63
2019-02-07T21:25:23.672Z,21.83
2019-02-07T21:27:52.140Z,21.97
2019-02-07T21:30:25.984Z,21.87
2019-02-07T21:32:55.288Z,20.83
2019-02-07T21:35:23.870Z,21.23
2019-02-07T21:37:52.566Z,20.97
2019-02-07T21:40:22.899Z,20.90
2019-02-07T21:42:51.515Z,21.10
2019-02-07T21:45:20.002Z,20.80
2019-02-07T21:47:48.570Z,19.53
2019-02-07T21:50:19.519Z,20.83
2019-02-07T21:52:47.820Z,20.50
2019-02-07T21:55:17.850Z,20.70
2019-02-07T21:57:46.495Z,20.77
2019-02-07T22:00:23.701Z,21.60
2019-02-07T22:02:52.426Z,21.90
2019-02-07T22:05:20.665Z,22.03
2019-02-07T22:07:48.977Z,22.43
2019-02-07T22:10:17.633Z,22.53
2019-02-07T22:12:46.090Z,22.63
2019-02-07T22:15:19.550Z,21.10
2019-02-07T22:17:48.506Z,21.90
2019-02-07T22:20:19.552Z,21.47
2019-02-07T22:22:49.455Z,21.47
2019-02-07T22:25:19.156Z,21.90
2019-02-07T22:27:47.633Z,22.47
2019-02-07T22:30:25.060Z,24.13
2019-02-07T22:32:53.493Z,23.97
2019-02-07T22:35:22.062Z,23.60
2019-02-07T22:37:50.454Z,24.03
2019-02-07T22:40:20.662Z,23.63
2019-02-07T22:42:49.010Z,22.97
2019-02-07T22:45:19.361Z,22.77
2019-02-07T22:47:47.650Z,21.43
2019-02-07T22:50:18.923Z,20.77
2019-02-07T22:52:47.244Z,20.87
2019-02-07T22:55:16.347Z,20.33
2019-02-07T22:57:44.615Z,19.47
2019-02-07T23:00:36.306Z,19.77
2019-02-07T23:03:07.189Z,16.50
2019-02-07T23:05:35.540Z,16.33
2019-02-07T23:08:03.975Z,14.80
2019-02-07T23:10:32.646Z,13.53
2019-02-07T23:13:01.478Z,11.87
2019-02-07T23:15:29.804Z,19.17
2019-02-07T23:17:58.129Z,13.13
2019-02-07T23:20:26.412Z,9.03
2019-02-07T23:22:54.728Z,9.33
2019-02-07T23:25:23.029Z,7.93
2019-02-07T23:27:51.586Z,8.53
2019-02-07T23:30:20.297Z,7.50
2019-02-07T23:32:48.632Z,7.13
2019-02-07T23:35:16.974Z,7.97
2019-02-07T23:37:45.544Z,8.07
2019-02-07T23:40:15.922Z,8.90
2019-02-07T23:42:44.170Z,9.53
2019-02-07T23:45:16.980Z,8.70
2019-02-07T23:47:45.311Z,8.37
2019-02-07T23:50:13.817Z,9.80
2019-02-07T23:52:42.095Z,8.20
2019-02-07T23:55:11.932Z,7.90
2019-02-07T23:57:40.254Z,8.00
